createdAt,value
2018-05-24T00:00:13.012Z,7.03
2018-05-24T00:02:40.532Z,4.00
2018-05-24T00:05:08.808Z,3.70
2018-05-24T00:07:37.122Z,3.57
2018-05-24T00:10:04.691Z,3.43
2018-05-24T00:12:32.216Z,4.50
2018-05-24T00:14:59.710Z,4.10
2018-05-24T00:17:28.187Z,3.37
2018-05-24T00:19:56.517Z,5.10
2018-05-24T00:22:24.788Z,3.83
2018-05-24T00:24:53.076Z,3.33
2018-05-24T00:27:22.322Z,3.63
2018-05-24T00:29:49.844Z,3.07
2018-05-24T00:32:17.343Z,4.07
2018-05-24T00:34:44.868Z,3.90
2018-05-24T00:37:12.376Z,4.00
2018-05-24T00:39:39.875Z,3.90
2018-05-24T00:42:07.404Z,4.63
2018-05-24T00:44:35.743Z,4.07
2018-05-24T00:47:03.255Z,4.20
2018-05-24T00:49:30.759Z,3.60
2018-05-24T00:51:58.276Z,4.30
2018-05-24T00:54:25.827Z,4.57
2018-05-24T00:56:53.373Z,4.03
2018-05-24T00:59:21.861Z,4.17
2018-05-24T01:01:50.379Z,4.43
2018-05-24T01:04:17.931Z,4.00
2018-05-24T01:06:45.439Z,5.37
2018-05-24T01:09:14.718Z,3.90
2018-05-24T01:11:42.225Z,4.57
2018-05-24T01:14:09.751Z,4.70
2018-05-24T01:16:38.017Z,4.87
2018-05-24T01:19:05.547Z,4.53
2018-05-24T01:21:33.076Z,6.73
2018-05-24T01:24:00.576Z,4.80
2018-05-24T01:26:30.829Z,4.47
2018-05-24T01:28:59.106Z,4.83
2018-05-24T01:31:28.445Z,4.60
2018-05-24T01:33:55.980Z,5.33
2018-05-24T01:39:18.808Z,4.97
2018-05-24T01:41:46.364Z,5.43
2018-05-24T01:44:14.831Z,4.17
2018-05-24T01:46:42.325Z,4.90
2018-05-24T01:49:10.611Z,5.20
2018-05-24T01:51:38.111Z,4.43
2018-05-24T01:54:05.638Z,4.73
2018-05-24T01:56:33.142Z,4.17
2018-05-24T01:59:00.663Z,4.60
2018-05-24T02:01:29.111Z,5.33
2018-05-24T02:03:56.634Z,4.20
2018-05-24T02:06:24.143Z,4.50
2018-05-24T02:08:51.655Z,5.03
2018-05-24T02:11:19.176Z,4.50
2018-05-24T02:13:46.682Z,7.30
2018-05-24T02:16:14.989Z,5.10
2018-05-24T02:18:43.427Z,4.80
2018-05-24T02:21:10.952Z,4.30
2018-05-24T02:23:38.447Z,5.27
2018-05-24T02:26:06.045Z,4.20
2018-05-24T02:28:35.552Z,5.23
2018-05-24T02:31:03.051Z,4.90
2018-05-24T02:33:30.583Z,4.90
2018-05-24T02:35:58.290Z,5.07
2018-05-24T02:38:26.613Z,4.43
2018-05-24T02:40:54.203Z,4.43
2018-05-24T02:43:21.733Z,5.90
2018-05-24T02:45:49.240Z,5.50
2018-05-24T02:48:19.500Z,5.30
2018-05-24T02:50:47.023Z,4.87
2018-05-24T02:53:15.298Z,7.67
2018-05-24T02:55:44.547Z,4.70
2018-05-24T02:58:12.053Z,5.23
2018-05-24T03:00:40.370Z,4.90
2018-05-24T03:03:08.843Z,4.70
2018-05-24T03:05:36.369Z,6.10
2018-05-24T03:08:05.630Z,4.93
2018-05-24T03:10:33.899Z,6.13
2018-05-24T03:13:03.355Z,6.10
2018-05-24T03:15:30.852Z,5.60
2018-05-24T03:17:58.372Z,5.87
2018-05-24T03:20:25.888Z,4.90
2018-05-24T03:22:54.188Z,6.67
2018-05-24T03:25:22.474Z,5.70
2018-05-24T03:27:49.984Z,4.93
2018-05-24T03:30:17.538Z,6.47
2018-05-24T03:32:46.051Z,5.10
2018-05-24T03:35:14.340Z,8.23
2018-05-24T03:37:41.863Z,5.03
2018-05-24T03:40:10.471Z,5.60
2018-05-24T03:42:38.784Z,5.30
2018-05-24T03:45:06.288Z,6.20
2018-05-24T03:47:33.851Z,5.43
2018-05-24T03:50:01.354Z,4.30
2018-05-24T03:52:28.892Z,4.47
2018-05-24T03:54:56.396Z,6.00
2018-05-24T03:57:23.925Z,5.70
2018-05-24T04:00:12.331Z,4.80
2018-05-24T04:02:53.852Z,4.90
2018-05-24T04:05:21.351Z,7.10
2018-05-24T04:07:48.843Z,5.67
2018-05-24T04:10:18.099Z,5.20
2018-05-24T04:12:45.732Z,5.20
2018-05-24T04:15:13.258Z,5.47
2018-05-24T04:17:41.544Z,5.40
2018-05-24T04:20:09.808Z,5.40
2018-05-24T04:22:38.091Z,5.57
2018-05-24T04:25:06.362Z,5.53
2018-05-24T04:27:34.767Z,6.57
2018-05-24T04:30:02.288Z,5.47
2018-05-24T04:32:30.567Z,5.20
2018-05-24T04:34:58.826Z,6.40
2018-05-24T04:37:26.344Z,5.90
2018-05-24T04:39:53.836Z,7.07
2018-05-24T04:42:21.332Z,6.30
2018-05-24T04:44:48.880Z,6.40
2018-05-24T04:47:16.376Z,5.43
2018-05-24T04:49:43.892Z,6.17
2018-05-24T04:52:12.247Z,5.27
2018-05-24T04:54:41.642Z,5.33
2018-05-24T04:57:09.140Z,5.77
2018-05-24T04:59:36.684Z,5.40
2018-05-24T05:02:04.967Z,6.57
2018-05-24T05:04:32.493Z,5.10
2018-05-24T05:07:00.017Z,6.33
2018-05-24T05:09:27.524Z,6.20
2018-05-24T05:11:55.830Z,6.80
2018-05-24T05:14:23.328Z,6.10
2018-05-24T05:16:52.585Z,5.83
2018-05-24T05:19:20.089Z,6.17
2018-05-24T05:21:49.092Z,5.10
2018-05-24T05:24:16.670Z,6.53
2018-05-24T05:26:44.177Z,6.20
2018-05-24T05:29:11.715Z,7.17
2018-05-24T05:31:39.229Z,7.10
2018-05-24T05:34:07.600Z,8.03
2018-05-24T05:36:35.864Z,7.03
2018-05-24T05:39:04.127Z,7.80
2018-05-24T05:41:32.427Z,7.00
2018-05-24T05:44:00.688Z,7.10
2018-05-24T05:46:28.208Z,7.73
2018-05-24T05:48:56.645Z,8.00
2018-05-24T05:51:24.931Z,8.60
2018-05-24T05:53:52.429Z,11.23
2018-05-24T05:56:19.961Z,8.43
2018-05-24T05:58:47.504Z,8.67
2018-05-24T06:01:15.352Z,8.13
2018-05-24T06:03:43.155Z,8.67
2018-05-24T06:06:10.916Z,8.87
2018-05-24T06:08:38.885Z,8.70
2018-05-24T06:11:07.774Z,9.77
2018-05-24T06:13:37.094Z,8.37
2018-05-24T06:16:05.041Z,9.33
2018-05-24T06:18:33.777Z,8.40
2018-05-24T06:21:02.410Z,11.30
2018-05-24T06:23:29.969Z,9.47
2018-05-24T06:25:57.529Z,16.30
2018-05-24T06:28:25.050Z,65.07
2018-05-24T06:30:53.361Z,100.57
2018-05-24T06:33:20.933Z,51.17
2018-05-24T06:35:48.439Z,69.27
2018-05-24T06:38:18.720Z,87.03
2018-05-24T06:40:46.253Z,110.10
2018-05-24T06:43:13.814Z,79.00
2018-05-24T06:45:41.311Z,78.73
2018-05-24T06:48:09.609Z,82.13
2018-05-24T06:50:38.838Z,69.87
2018-05-24T06:53:06.375Z,76.27
2018-05-24T06:55:34.670Z,60.13
2018-05-24T06:58:02.178Z,56.43
2018-05-24T07:00:29.777Z,57.90
2018-05-24T07:02:57.274Z,51.10
2018-05-24T07:05:24.808Z,66.43
2018-05-24T07:07:52.311Z,67.83
2018-05-24T07:10:19.854Z,52.30
2018-05-24T07:12:47.356Z,58.97
2018-05-24T07:15:14.861Z,48.27
2018-05-24T07:17:42.393Z,50.23
2018-05-24T07:20:09.892Z,54.07
2018-05-24T07:22:38.927Z,59.57
2018-05-24T07:25:06.438Z,41.17
2018-05-24T07:27:35.465Z,52.57
2018-05-24T07:30:03.729Z,41.43
2018-05-24T07:32:32.015Z,47.07
2018-05-24T07:35:02.246Z,41.73
2018-05-24T07:37:30.556Z,39.63
2018-05-24T07:39:58.081Z,49.50
2018-05-24T07:42:25.592Z,36.70
2018-05-24T07:44:53.859Z,38.83
2018-05-24T07:47:21.397Z,35.33
2018-05-24T07:49:48.911Z,36.63
2018-05-24T07:52:17.215Z,38.50
2018-05-24T07:54:44.796Z,34.40
2018-05-24T07:57:13.040Z,31.23
2018-05-24T07:59:41.326Z,33.90
2018-05-24T08:02:08.835Z,28.83
2018-05-24T08:04:36.360Z,34.97
2018-05-24T08:07:03.869Z,29.20
2018-05-24T08:09:33.034Z,31.07
2018-05-24T08:12:02.044Z,30.27
2018-05-24T08:14:30.354Z,26.23
2018-05-24T08:16:57.912Z,31.90
2018-05-24T08:19:25.441Z,24.83
2018-05-24T08:21:53.706Z,27.33
2018-05-24T08:24:21.975Z,29.43
2018-05-24T08:26:49.499Z,26.47
2018-05-24T08:29:17.008Z,21.97
2018-05-24T08:31:47.244Z,22.00
2018-05-24T08:34:14.753Z,22.33
2018-05-24T08:36:43.061Z,19.37
2018-05-24T08:39:11.331Z,21.37
2018-05-24T08:41:39.630Z,20.57
2018-05-24T08:44:07.139Z,17.60
2018-05-24T08:46:35.592Z,22.57
2018-05-24T08:49:03.124Z,20.63
2018-05-24T08:51:30.623Z,17.60
2018-05-24T08:53:58.162Z,15.43
2018-05-24T08:56:25.670Z,18.37
2018-05-24T08:58:53.975Z,20.70
2018-05-24T09:01:21.511Z,11.30
2018-05-24T09:03:49.786Z,14.70
2018-05-24T09:06:18.092Z,18.90
2018-05-24T09:08:45.621Z,15.70
2018-05-24T09:11:13.918Z,20.20
2018-05-24T09:13:41.419Z,16.23
2018-05-24T09:16:08.939Z,16.90
2018-05-24T09:18:36.446Z,15.40
2018-05-24T09:21:05.915Z,21.07
2018-05-24T09:23:33.415Z,24.27
2018-05-24T09:26:00.922Z,15.77
2018-05-24T09:28:28.439Z,11.80
2018-05-24T09:30:56.706Z,20.17
2018-05-24T09:33:25.508Z,15.93
2018-05-24T09:35:54.749Z,17.83
2018-05-24T09:38:22.279Z,13.63
2018-05-24T09:40:49.782Z,15.90
2018-05-24T09:43:17.307Z,13.30
2018-05-24T09:45:44.800Z,14.83
2018-05-24T09:48:12.296Z,10.40
2018-05-24T09:50:39.848Z,14.10
2018-05-24T09:53:07.364Z,12.20
2018-05-24T09:55:34.898Z,14.17
2018-05-24T09:58:02.408Z,12.03
2018-05-24T10:00:30.694Z,9.00
2018-05-24T10:02:58.966Z,11.60
2018-05-24T10:05:27.472Z,13.17
2018-05-24T10:07:54.999Z,11.93
2018-05-24T10:10:23.284Z,9.47
2018-05-24T10:12:51.578Z,9.90
2018-05-24T10:15:20.036Z,9.43
2018-05-24T10:17:47.584Z,13.63
2018-05-24T10:20:15.855Z,11.50
2018-05-24T10:22:44.164Z,13.23
2018-05-24T10:25:11.671Z,10.47
2018-05-24T10:27:40.682Z,9.90
2018-05-24T10:30:08.964Z,10.07
2018-05-24T10:32:37.232Z,14.20
2018-05-24T10:35:05.523Z,11.23
2018-05-24T10:37:33.031Z,10.83
2018-05-24T10:40:00.552Z,9.57
2018-05-24T10:42:29.012Z,13.40
2018-05-24T10:44:57.285Z,8.97
2018-05-24T10:47:25.579Z,10.40
2018-05-24T10:49:53.080Z,10.20
2018-05-24T10:52:20.611Z,7.13
2018-05-24T10:54:48.125Z,9.10
2018-05-24T10:57:16.411Z,11.53
2018-05-24T10:59:43.931Z,9.50
2018-05-24T11:02:11.493Z,11.53
2018-05-24T11:04:38.991Z,9.73
2018-05-24T11:07:06.509Z,9.83
2018-05-24T11:09:35.982Z,9.97
2018-05-24T11:12:03.495Z,9.03
2018-05-24T11:14:31.780Z,7.97
2018-05-24T11:16:59.270Z,8.90
2018-05-24T11:19:26.799Z,10.10
2018-05-24T11:21:54.304Z,7.30
2018-05-24T11:24:21.799Z,10.63
2018-05-24T11:26:52.038Z,8.43
2018-05-24T11:29:19.540Z,10.47
2018-05-24T11:31:48.620Z,14.47
2018-05-24T11:34:16.123Z,11.83
2018-05-24T11:36:44.403Z,7.60
2018-05-24T11:39:12.666Z,8.60
2018-05-24T11:41:41.878Z,9.40
2018-05-24T11:44:10.221Z,6.57
2018-05-24T11:46:39.458Z,6.77
2018-05-24T11:49:06.984Z,7.60
2018-05-24T11:51:34.508Z,8.03
2018-05-24T11:54:02.027Z,11.87
2018-05-24T11:56:29.520Z,6.47
2018-05-24T11:58:57.778Z,7.90
2018-05-24T12:01:25.299Z,8.70
2018-05-24T12:03:53.579Z,9.23
2018-05-24T12:06:21.863Z,7.97
2018-05-24T12:08:50.125Z,7.20
2018-05-24T12:11:18.432Z,6.90
2018-05-24T12:13:45.964Z,10.73
2018-05-24T12:16:15.209Z,8.50
2018-05-24T12:18:42.707Z,9.43
2018-05-24T12:21:10.224Z,6.40
2018-05-24T12:23:37.801Z,11.07
2018-05-24T12:26:05.364Z,8.30
2018-05-24T12:28:33.596Z,10.43
2018-05-24T12:31:01.119Z,7.33
2018-05-24T12:33:29.408Z,7.27
2018-05-24T12:35:56.912Z,7.53
2018-05-24T12:38:24.419Z,6.30
2018-05-24T12:40:52.706Z,6.47
2018-05-24T12:43:21.184Z,7.03
2018-05-24T12:45:48.712Z,8.80
2018-05-24T12:48:16.224Z,6.67
2018-05-24T12:50:43.760Z,8.07
2018-05-24T12:53:11.253Z,6.57
2018-05-24T12:55:38.797Z,8.53
2018-05-24T12:58:06.295Z,7.70
2018-05-24T13:00:33.800Z,7.27
2018-05-24T13:03:01.322Z,6.83
2018-05-24T13:05:29.780Z,8.80
2018-05-24T13:07:58.075Z,6.67
2018-05-24T13:10:26.344Z,8.23
2018-05-24T13:12:54.636Z,9.10
2018-05-24T13:15:22.897Z,8.53
2018-05-24T13:17:51.175Z,6.67
2018-05-24T13:20:19.495Z,6.23
2018-05-24T13:22:47.030Z,6.17
2018-05-24T13:25:16.541Z,6.57
2018-05-24T13:27:44.058Z,8.30
2018-05-24T13:30:11.584Z,7.37
2018-05-24T13:32:39.079Z,6.80
2018-05-24T13:35:07.373Z,7.40
2018-05-24T13:37:34.871Z,6.37
2018-05-24T13:40:02.379Z,7.83
2018-05-24T13:42:30.670Z,6.53
2018-05-24T13:44:58.173Z,5.13
2018-05-24T13:47:25.688Z,6.77
2018-05-24T13:49:53.196Z,7.97
2018-05-24T13:52:21.505Z,6.40
2018-05-24T13:54:49.778Z,6.10
2018-05-24T14:00:12.874Z,9.40
2018-05-24T14:02:40.396Z,5.90
2018-05-24T14:05:08.668Z,5.73
2018-05-24T14:07:36.937Z,8.10
2018-05-24T14:10:05.233Z,6.80
2018-05-24T14:12:34.752Z,5.73
2018-05-24T14:15:02.283Z,7.93
2018-05-24T14:17:30.568Z,6.17
2018-05-24T14:19:58.855Z,7.23
2018-05-24T14:22:26.358Z,9.03
2018-05-24T14:24:53.882Z,5.60
2018-05-24T14:27:21.388Z,5.43
2018-05-24T14:29:50.861Z,7.37
2018-05-24T14:32:18.363Z,5.53
2018-05-24T14:34:46.635Z,5.90
2018-05-24T14:37:14.147Z,6.20
2018-05-24T14:39:41.650Z,6.63
2018-05-24T14:42:09.954Z,5.53
2018-05-24T14:44:37.443Z,6.27
2018-05-24T14:47:05.000Z,5.90
2018-05-24T14:49:32.498Z,8.80
2018-05-24T14:52:00.777Z,7.23
2018-05-24T14:54:29.055Z,5.50
2018-05-24T14:56:57.322Z,6.07
2018-05-24T14:59:25.632Z,6.50
2018-05-24T15:01:53.143Z,5.93
2018-05-24T15:04:20.672Z,5.67
2018-05-24T15:06:48.172Z,6.27
2018-05-24T15:09:16.436Z,6.80
2018-05-24T15:11:43.968Z,6.73
2018-05-24T15:14:11.467Z,5.33
2018-05-24T15:16:39.769Z,5.33
2018-05-24T15:19:07.294Z,5.20
2018-05-24T15:21:35.568Z,5.37
2018-05-24T15:24:03.923Z,5.70
2018-05-24T15:26:32.193Z,6.80
2018-05-24T15:28:59.718Z,6.13
2018-05-24T15:31:27.220Z,6.23
2018-05-24T15:33:54.749Z,5.37
2018-05-24T15:36:22.246Z,5.20
2018-05-24T15:38:50.525Z,5.10
2018-05-24T15:41:18.841Z,4.70
2018-05-24T15:43:46.352Z,5.23
2018-05-24T15:46:14.647Z,5.40
2018-05-24T15:48:42.156Z,5.17
2018-05-24T15:51:09.686Z,5.47
2018-05-24T15:53:37.199Z,5.10
2018-05-24T15:56:04.695Z,5.10
2018-05-24T15:58:32.255Z,5.23
2018-05-24T16:00:59.767Z,5.70
2018-05-24T16:03:27.297Z,6.60
2018-05-24T16:05:54.795Z,4.90
2018-05-24T16:08:23.092Z,5.10
2018-05-24T16:10:50.587Z,4.30
2018-05-24T16:13:18.089Z,4.80
2018-05-24T16:15:46.369Z,6.50
2018-05-24T16:18:13.875Z,4.87
2018-05-24T16:20:41.387Z,5.20
2018-05-24T16:23:08.891Z,5.97
2018-05-24T16:25:38.351Z,5.00
2018-05-24T16:28:05.857Z,5.40
2018-05-24T16:30:34.887Z,5.07
2018-05-24T16:33:03.155Z,4.67
2018-05-24T16:35:31.418Z,4.33
2018-05-24T16:37:59.707Z,7.23
2018-05-24T16:40:27.980Z,4.43
2018-05-24T16:42:56.257Z,5.83
2018-05-24T16:45:25.475Z,5.33
2018-05-24T16:47:52.967Z,4.40
2018-05-24T16:50:20.499Z,5.40
2018-05-24T16:52:48.002Z,5.03
2018-05-24T16:55:16.379Z,7.70
2018-05-24T16:57:43.896Z,4.37
2018-05-24T17:00:11.405Z,4.80
2018-05-24T17:02:38.926Z,5.43
2018-05-24T17:05:07.384Z,4.17
2018-05-24T17:07:34.928Z,5.07
2018-05-24T17:10:02.431Z,4.90
2018-05-24T17:12:29.940Z,4.70
2018-05-24T17:14:57.477Z,4.20
2018-05-24T17:17:25.747Z,4.37
2018-05-24T17:19:53.274Z,4.83
2018-05-24T17:22:20.777Z,4.20
2018-05-24T17:24:49.062Z,5.70
2018-05-24T17:27:16.568Z,4.20
2018-05-24T17:29:44.076Z,4.47
2018-05-24T17:32:11.602Z,4.67
2018-05-24T17:34:40.048Z,5.13
2018-05-24T17:37:07.571Z,4.63
2018-05-24T17:39:35.078Z,6.17
2018-05-24T17:42:02.588Z,4.97
2018-05-24T17:44:30.116Z,4.17
2018-05-24T17:46:57.616Z,5.03
2018-05-24T17:49:25.138Z,3.70
2018-05-24T17:51:53.411Z,4.33
2018-05-24T17:54:21.724Z,4.53
2018-05-24T17:56:49.253Z,4.60
2018-05-24T17:59:17.521Z,4.00
2018-05-24T18:01:45.821Z,4.57
2018-05-24T18:04:13.326Z,5.70
2018-05-24T18:06:41.613Z,4.83
2018-05-24T18:09:09.154Z,4.33
2018-05-24T18:11:36.666Z,4.10
2018-05-24T18:14:04.236Z,4.73
2018-05-24T18:16:31.745Z,4.13
2018-05-24T18:18:59.254Z,3.70
2018-05-24T18:21:26.779Z,4.47
2018-05-24T18:23:55.079Z,3.80
2018-05-24T18:26:22.584Z,5.13
2018-05-24T18:28:50.851Z,5.50
2018-05-24T18:31:18.403Z,4.37
2018-05-24T18:33:45.928Z,4.90
2018-05-24T18:36:13.450Z,4.20
2018-05-24T18:38:41.766Z,3.87
2018-05-24T18:41:10.076Z,4.90
2018-05-24T18:43:37.580Z,4.80
2018-05-24T18:46:05.091Z,4.47
2018-05-24T18:48:32.595Z,5.20
2018-05-24T18:51:01.295Z,4.40
2018-05-24T18:53:29.045Z,5.50
2018-05-24T18:55:56.929Z,6.40
2018-05-24T18:58:25.780Z,5.50
2018-05-24T19:00:54.499Z,4.33
2018-05-24T19:03:22.309Z,3.90
2018-05-24T19:05:50.845Z,4.27
2018-05-24T19:08:19.224Z,4.10
2018-05-24T19:10:48.055Z,4.07
2018-05-24T19:13:16.750Z,5.80
2018-05-24T19:15:45.277Z,4.10
2018-05-24T19:18:13.241Z,4.20
2018-05-24T19:20:41.007Z,4.40
2018-05-24T19:23:08.870Z,4.60
2018-05-24T19:25:36.692Z,3.93
2018-05-24T19:28:05.165Z,5.37
2018-05-24T19:30:33.542Z,4.50
2018-05-24T19:33:01.047Z,7.37
2018-05-24T19:35:28.564Z,4.90
2018-05-24T19:37:56.085Z,4.73
2018-05-24T19:40:23.592Z,4.70
2018-05-24T19:42:51.879Z,4.10
2018-05-24T19:45:19.378Z,4.10
2018-05-24T19:47:46.900Z,3.60
2018-05-24T19:50:14.446Z,3.73
2018-05-24T19:52:42.104Z,4.17
2018-05-24T19:55:09.629Z,4.17
2018-05-24T19:57:37.890Z,5.43
2018-05-24T20:00:05.406Z,3.90
2018-05-24T20:02:32.924Z,4.47
2018-05-24T20:05:00.443Z,4.87
2018-05-24T20:07:27.947Z,3.97
2018-05-24T20:09:56.267Z,3.93
2018-05-24T20:12:24.759Z,3.50
2018-05-24T20:14:52.272Z,4.00
2018-05-24T20:17:20.585Z,4.03
2018-05-24T20:19:48.707Z,3.83
2018-05-24T20:22:16.997Z,3.97
2018-05-24T20:24:45.259Z,4.40
2018-05-24T20:27:13.581Z,4.53
2018-05-24T20:29:41.108Z,3.70
2018-05-24T20:32:08.611Z,3.83
2018-05-24T20:34:36.139Z,4.73
2018-05-24T20:37:03.664Z,3.57
2018-05-24T20:39:31.966Z,3.13
2018-05-24T20:41:59.475Z,3.60
2018-05-24T20:44:28.511Z,3.57
2018-05-24T20:46:56.020Z,3.87
2018-05-24T20:49:23.542Z,4.10
2018-05-24T20:51:51.067Z,3.90
2018-05-24T20:54:19.351Z,3.73
2018-05-24T20:56:47.648Z,4.00
2018-05-24T20:59:15.150Z,3.60
2018-05-24T21:01:44.207Z,3.80
2018-05-24T21:04:11.723Z,3.53
2018-05-24T21:06:39.227Z,3.63
2018-05-24T21:09:06.758Z,3.60
2018-05-24T21:11:34.254Z,3.50
2018-05-24T21:14:01.855Z,3.53
2018-05-24T21:16:30.115Z,3.90
2018-05-24T21:18:57.684Z,3.90
2018-05-24T21:21:25.237Z,4.30
2018-05-24T21:23:53.533Z,3.93
2018-05-24T21:26:21.066Z,3.93
2018-05-24T21:28:48.578Z,3.33
2018-05-24T21:31:16.103Z,3.37
2018-05-24T21:33:43.611Z,3.50
2018-05-24T21:36:11.451Z,4.00
2018-05-24T21:38:38.975Z,3.40
2018-05-24T21:41:07.245Z,3.70
2018-05-24T21:43:35.600Z,4.03
2018-05-24T21:46:03.099Z,3.50
2018-05-24T21:48:30.611Z,4.33
2018-05-24T21:50:59.664Z,4.60
2018-05-24T21:53:27.235Z,3.50
2018-05-24T21:55:54.739Z,5.27
2018-05-24T21:58:24.025Z,4.50
2018-05-24T22:00:52.048Z,4.50
2018-05-24T22:03:19.916Z,3.17
2018-05-24T22:05:47.780Z,3.30
2018-05-24T22:08:16.466Z,4.30
2018-05-24T22:10:44.327Z,3.60
2018-05-24T22:13:12.048Z,3.10
2018-05-24T22:15:40.352Z,3.00
2018-05-24T22:18:07.844Z,3.30
2018-05-24T22:20:35.348Z,3.10
2018-05-24T22:23:03.635Z,3.53
2018-05-24T22:25:31.152Z,3.30
2018-05-24T22:28:00.192Z,3.40
2018-05-24T22:30:27.695Z,3.77
2018-05-24T22:32:57.159Z,3.17
2018-05-24T22:35:24.664Z,3.57
2018-05-24T22:37:53.909Z,2.80
2018-05-24T22:40:21.445Z,4.70
2018-05-24T22:42:48.976Z,3.60
2018-05-24T22:45:16.496Z,3.10
2018-05-24T22:47:44.004Z,4.70
2018-05-24T22:50:11.533Z,3.20
2018-05-24T22:52:39.877Z,3.57
2018-05-24T22:55:07.371Z,2.77
2018-05-24T22:57:34.901Z,3.57
2018-05-24T23:00:02.424Z,3.20
2018-05-24T23:02:30.702Z,3.23
2018-05-24T23:04:58.984Z,3.03
2018-05-24T23:07:26.500Z,3.00
2018-05-24T23:09:54.427Z,3.10
2018-05-24T23:12:23.419Z,3.20
2018-05-24T23:14:51.055Z,3.20
2018-05-24T23:17:19.250Z,3.23
2018-05-24T23:19:46.781Z,3.40
2018-05-24T23:22:27.134Z,3.10
2018-05-24T23:24:55.415Z,3.13
2018-05-24T23:27:23.680Z,3.50
2018-05-24T23:29:52.007Z,4.00
2018-05-24T23:32:19.655Z,3.27
2018-05-24T23:34:47.180Z,3.60
2018-05-24T23:37:15.459Z,3.57
2018-05-24T23:39:45.683Z,4.40
2018-05-24T23:42:13.947Z,3.60
2018-05-24T23:44:42.227Z,3.40
2018-05-24T23:47:10.544Z,3.50
2018-05-24T23:49:38.041Z,4.00
2018-05-24T23:52:05.574Z,2.97
2018-05-24T23:54:33.071Z,5.73
2018-05-24T23:57:01.372Z,3.00
2018-05-24T23:59:28.911Z,4.80
